createdAt,value
2022-11-20T00:01:21.413Z,-0.15
2022-11-20T00:03:48.153Z,-0.14
2022-11-20T00:06:17.256Z,-0.16
2022-11-20T00:08:44.116Z,-0.12
2022-11-20T00:11:16.166Z,-0.14
2022-11-20T00:13:44.047Z,-0.14
2022-11-20T00:16:12.732Z,-0.15
2022-11-20T00:18:39.239Z,-0.17
2022-11-20T00:21:13.524Z,-0.21
2022-11-20T00:23:39.965Z,-0.23
2022-11-20T00:26:08.961Z,-0.19
2022-11-20T00:28:35.606Z,-0.18
2022-11-20T00:31:22.212Z,-0.18
2022-11-20T00:33:49.027Z,-0.19
2022-11-20T00:36:23.651Z,-0.24
2022-11-20T00:38:54.623Z,-0.21
2022-11-20T00:41:21.811Z,-0.22
2022-11-20T00:43:48.275Z,-0.23
2022-11-20T00:46:19.911Z,-0.24
2022-11-20T00:48:46.828Z,-0.22
2022-11-20T00:51:18.935Z,-0.26
2022-11-20T00:53:45.785Z,-0.23
2022-11-20T00:56:14.494Z,-0.27
2022-11-20T00:58:42.989Z,-0.24
2022-11-20T01:01:15.186Z,-0.24
2022-11-20T01:03:52.110Z,-0.28
2022-11-20T01:06:24.241Z,-0.30
2022-11-20T01:08:53.303Z,-0.28
2022-11-20T01:11:27.938Z,-0.29
2022-11-20T01:13:55.624Z,-0.29
2022-11-20T01:16:25.923Z,-0.30
2022-11-20T01:18:54.536Z,-0.29
2022-11-20T01:21:23.540Z,-0.32
2022-11-20T01:23:51.051Z,-0.32
2022-11-20T01:26:20.445Z,-0.32
2022-11-20T01:28:47.199Z,-0.33
2022-11-20T01:31:17.044Z,-0.32
2022-11-20T01:33:44.328Z,-0.31
2022-11-20T01:36:11.374Z,-0.31
2022-11-20T01:38:37.818Z,-0.33
2022-11-20T01:41:04.544Z,-0.29
2022-11-20T01:43:31.111Z,-0.26
2022-11-20T01:46:04.888Z,-0.24
2022-11-20T01:48:36.907Z,-0.19
2022-11-20T01:51:07.200Z,-0.18
2022-11-20T01:53:37.510Z,-0.19
2022-11-20T01:56:09.195Z,-0.24
2022-11-20T01:58:39.852Z,-0.26
2022-11-20T02:01:06.335Z,-0.32
2022-11-20T02:03:32.984Z,-0.29
2022-11-20T02:06:18.126Z,-0.25
2022-11-20T02:08:44.549Z,-0.24
2022-11-20T02:11:10.999Z,-0.19
2022-11-20T02:13:46.241Z,-0.17
2022-11-20T02:16:16.525Z,-0.18
2022-11-20T02:18:44.418Z,-0.16
2022-11-20T02:21:19.885Z,-0.12
2022-11-20T02:24:00.926Z,-0.09
2022-11-20T02:26:30.604Z,-0.12
2022-11-20T02:28:58.750Z,-0.15
2022-11-20T02:31:25.089Z,-0.26
2022-11-20T02:33:58.895Z,-0.24
2022-11-20T02:36:28.275Z,-0.21
2022-11-20T02:38:55.122Z,-0.23
2022-11-20T02:41:21.456Z,-0.30
2022-11-20T02:43:47.909Z,-0.30
2022-11-20T02:46:14.739Z,-0.24
2022-11-20T02:48:41.070Z,-0.31
2022-11-20T02:51:07.520Z,-0.31
2022-11-20T02:53:34.020Z,-0.42
2022-11-20T02:56:00.390Z,-0.46
2022-11-20T02:58:26.729Z,-0.49
2022-11-20T03:00:53.269Z,-0.41
2022-11-20T03:03:19.699Z,-0.40
2022-11-20T03:05:46.051Z,-0.48
2022-11-20T03:08:12.552Z,-0.39
2022-11-20T03:10:38.884Z,-0.38
2022-11-20T03:13:05.201Z,-0.37
2022-11-20T03:15:31.631Z,-0.35
2022-11-20T03:17:58.033Z,-0.33
2022-11-20T03:20:24.896Z,-0.33
2022-11-20T03:22:51.639Z,-0.31
2022-11-20T03:25:17.966Z,-0.31
2022-11-20T03:27:44.291Z,-0.31
2022-11-20T03:30:10.931Z,-0.32
2022-11-20T03:32:37.285Z,-0.28
2022-11-20T03:35:03.754Z,-0.36
2022-11-20T03:37:30.127Z,-0.28
2022-11-20T03:39:56.450Z,-0.22
2022-11-20T03:42:41.564Z,-0.25
2022-11-20T03:45:08.393Z,-0.25
2022-11-20T03:47:34.771Z,-0.22
2022-11-20T03:50:01.097Z,-0.22
2022-11-20T03:52:27.428Z,-0.27
2022-11-20T03:54:53.823Z,-0.22
2022-11-20T03:57:20.246Z,-0.25
2022-11-20T03:59:46.648Z,-0.42
2022-11-20T04:02:13.079Z,-0.31
2022-11-20T04:04:39.463Z,-0.29
2022-11-20T04:07:05.898Z,-0.37
2022-11-20T04:09:32.267Z,-0.32
2022-11-20T04:11:58.634Z,-0.39
2022-11-20T04:14:25.002Z,-0.40
2022-11-20T04:16:51.383Z,-0.35
2022-11-20T04:19:18.047Z,-0.35
2022-11-20T04:21:45.432Z,-0.30
2022-11-20T04:24:11.853Z,-0.34
2022-11-20T04:26:38.518Z,-0.37
2022-11-20T04:29:05.040Z,-0.45
2022-11-20T04:31:34.798Z,-0.38
2022-11-20T04:34:04.478Z,-0.38
2022-11-20T04:36:31.657Z,-0.32
2022-11-20T04:39:03.499Z,-0.30
2022-11-20T04:41:32.806Z,-0.24
2022-11-20T04:44:03.350Z,-0.09
2022-11-20T04:46:31.998Z,-0.08
2022-11-20T04:48:59.619Z,-0.11
2022-11-20T04:51:26.310Z,-0.16
2022-11-20T04:53:52.744Z,-0.10
2022-11-20T04:56:19.444Z,-0.09
2022-11-20T04:58:45.944Z,-0.06
2022-11-20T05:01:18.951Z,-0.04
2022-11-20T05:03:46.155Z,0.01
2022-11-20T05:06:14.865Z,-0.03
2022-11-20T05:08:41.957Z,-0.10
2022-11-20T05:11:17.164Z,-0.14
2022-11-20T05:13:43.525Z,-0.20
2022-11-20T05:16:13.425Z,-0.14
2022-11-20T05:18:40.325Z,-0.10
2022-11-20T05:21:07.910Z,0.03
2022-11-20T05:23:34.880Z,0.10
2022-11-20T05:26:02.197Z,0.15
2022-11-20T05:28:30.465Z,0.18
2022-11-20T05:30:56.926Z,0.12
2022-11-20T05:33:23.335Z,0.08
2022-11-20T05:35:50.739Z,0.07
2022-11-20T05:38:17.192Z,-0.04
2022-11-20T05:40:43.685Z,0.12
2022-11-20T05:43:10.050Z,0.06
2022-11-20T05:45:36.479Z,0.06
2022-11-20T05:48:02.927Z,0.03
2022-11-20T05:50:29.546Z,0.12
2022-11-20T05:52:58.465Z,0.12
2022-11-20T05:55:24.817Z,0.17
2022-11-20T05:57:51.142Z,0.22
2022-11-20T06:00:17.763Z,0.25
2022-11-20T06:02:44.215Z,0.22
2022-11-20T06:05:10.682Z,0.12
2022-11-20T06:07:38.176Z,0.19
2022-11-20T06:10:04.846Z,0.21
2022-11-20T06:12:33.705Z,0.24
2022-11-20T06:15:00.791Z,0.22
2022-11-20T06:17:27.279Z,0.11
2022-11-20T06:19:53.616Z,0.11
2022-11-20T06:22:19.978Z,0.17
2022-11-20T06:24:46.326Z,0.14
2022-11-20T06:27:12.682Z,0.17
2022-11-20T06:29:39.020Z,0.20
2022-11-20T06:32:05.392Z,0.17
2022-11-20T06:34:31.743Z,0.06
2022-11-20T06:36:58.074Z,0.02
2022-11-20T06:39:24.668Z,0.11
2022-11-20T06:41:55.755Z,0.08
2022-11-20T06:44:24.801Z,0.08
2022-11-20T06:46:51.094Z,0.15
2022-11-20T06:49:17.438Z,0.19
2022-11-20T06:51:43.774Z,0.16
2022-11-20T06:54:10.094Z,0.17
2022-11-20T06:56:36.426Z,0.24
2022-11-20T06:59:06.230Z,0.26
2022-11-20T07:01:32.644Z,0.27
2022-11-20T07:03:58.983Z,0.34
2022-11-20T07:06:25.345Z,0.38
2022-11-20T07:08:53.459Z,0.42
2022-11-20T07:11:19.938Z,0.39
2022-11-20T07:13:46.339Z,0.38
2022-11-20T07:16:12.709Z,0.40
2022-11-20T07:18:39.203Z,0.39
2022-11-20T07:21:08.457Z,0.41
2022-11-20T07:23:35.308Z,0.43
2022-11-20T07:26:06.801Z,0.44
2022-11-20T07:28:33.919Z,0.46
2022-11-20T07:31:00.695Z,0.56
2022-11-20T07:33:27.208Z,0.62
2022-11-20T07:35:53.775Z,0.67
2022-11-20T07:38:20.117Z,0.69
2022-11-20T07:40:46.556Z,0.79
2022-11-20T07:43:12.991Z,0.86
2022-11-20T07:45:39.390Z,0.96
2022-11-20T07:48:05.925Z,1.02
2022-11-20T07:50:32.334Z,1.08
2022-11-20T07:53:04.523Z,1.24
2022-11-20T07:55:31.397Z,1.22
2022-11-20T07:57:58.239Z,1.21
2022-11-20T08:00:25.119Z,1.23
2022-11-20T08:02:52.690Z,1.34
2022-11-20T08:05:19.333Z,1.38
2022-11-20T08:07:45.831Z,1.50
2022-11-20T08:10:14.577Z,1.59
2022-11-20T08:13:12.199Z,1.65
2022-11-20T08:15:40.074Z,1.69
2022-11-20T08:18:30.016Z,1.73
2022-11-20T08:20:57.328Z,1.69
2022-11-20T08:23:23.980Z,1.69
2022-11-20T08:25:51.842Z,1.60
2022-11-20T08:28:21.432Z,1.63
2022-11-20T08:30:49.640Z,1.77
2022-11-20T08:33:18.190Z,1.87
2022-11-20T08:35:44.767Z,1.88
2022-11-20T08:38:11.142Z,1.92
2022-11-20T08:40:37.518Z,1.87
2022-11-20T08:43:04.001Z,1.98
2022-11-20T08:45:34.048Z,2.00
2022-11-20T08:48:03.098Z,2.12
2022-11-20T08:50:32.492Z,2.13
2022-11-20T08:53:06.430Z,2.22
2022-11-20T08:55:33.048Z,2.32
2022-11-20T08:57:59.400Z,2.32
2022-11-20T09:00:25.778Z,2.33
2022-11-20T09:02:53.125Z,2.34
2022-11-20T09:05:19.589Z,2.40
2022-11-20T09:07:45.914Z,2.56
2022-11-20T09:10:27.860Z,2.75
2022-11-20T09:12:55.963Z,2.95
2022-11-20T09:15:23.298Z,3.10
2022-11-20T09:17:56.866Z,3.23
2022-11-20T09:20:23.592Z,3.18
2022-11-20T09:22:49.956Z,3.43
2022-11-20T09:25:16.820Z,3.80
2022-11-20T09:27:44.964Z,4.55
2022-11-20T09:30:11.873Z,4.49
2022-11-20T09:32:40.122Z,4.65
2022-11-20T09:35:07.989Z,4.67
2022-11-20T09:37:34.494Z,4.51
2022-11-20T09:40:00.886Z,4.43
2022-11-20T09:42:52.621Z,4.42
2022-11-20T09:45:49.995Z,4.13
2022-11-20T09:48:25.514Z,3.81
2022-11-20T09:51:17.833Z,3.62
2022-11-20T09:53:44.183Z,3.49
2022-11-20T09:56:12.081Z,3.42
2022-11-20T09:58:48.312Z,3.37
2022-11-20T10:01:20.504Z,3.38
2022-11-20T10:03:54.326Z,3.28
2022-11-20T10:06:30.011Z,3.29
2022-11-20T10:09:07.247Z,3.25
2022-11-20T10:11:47.170Z,3.34
2022-11-20T10:14:28.858Z,3.25
2022-11-20T10:17:12.288Z,3.29
2022-11-20T10:19:52.053Z,3.41
2022-11-20T10:22:41.514Z,3.43
2022-11-20T10:25:15.835Z,3.50
2022-11-20T10:28:23.253Z,3.51
2022-11-20T10:30:58.265Z,3.62
2022-11-20T10:33:38.730Z,3.69
2022-11-20T10:36:27.249Z,3.79
2022-11-20T10:39:01.625Z,3.79
2022-11-20T10:41:35.874Z,3.79
2022-11-20T10:44:15.978Z,3.70
2022-11-20T10:46:46.204Z,3.65
2022-11-20T10:49:16.597Z,3.72
2022-11-20T10:52:04.551Z,3.82
2022-11-20T10:54:50.909Z,3.86
2022-11-20T10:57:45.275Z,3.86
2022-11-20T11:00:13.322Z,3.95
2022-11-20T11:02:49.162Z,4.09
2022-11-20T11:05:21.239Z,4.05
2022-11-20T11:07:51.757Z,4.02
2022-11-20T11:10:24.197Z,3.96
2022-11-20T11:12:51.718Z,3.89
2022-11-20T11:15:30.195Z,3.92
2022-11-20T11:17:56.972Z,3.87
2022-11-20T11:20:25.657Z,3.85
2022-11-20T11:22:59.916Z,3.84
2022-11-20T11:25:26.252Z,3.89
2022-11-20T11:27:53.512Z,3.84
2022-11-20T11:30:21.208Z,3.84
2022-11-20T11:32:47.958Z,3.84
2022-11-20T11:35:26.620Z,3.83
2022-11-20T11:37:56.277Z,3.86
2022-11-20T11:40:24.971Z,3.93
2022-11-20T11:43:01.950Z,3.97
2022-11-20T11:45:28.674Z,3.99
2022-11-20T11:47:59.114Z,4.03
2022-11-20T11:50:27.095Z,4.07
2022-11-20T11:53:11.857Z,4.02
2022-11-20T11:56:06.640Z,4.08
2022-11-20T11:58:46.398Z,4.14
2022-11-20T12:01:35.436Z,4.10
2022-11-20T12:04:20.385Z,4.13
2022-11-20T12:06:52.617Z,4.19
2022-11-20T12:09:21.227Z,4.18
2022-11-20T12:12:09.664Z,4.25
2022-11-20T12:14:39.722Z,4.33
2022-11-20T12:17:06.056Z,4.32
2022-11-20T12:19:35.569Z,4.37
2022-11-20T12:22:23.695Z,4.45
2022-11-20T12:25:11.738Z,4.44
2022-11-20T12:27:55.706Z,4.44
2022-11-20T12:30:23.957Z,4.47
2022-11-20T12:33:31.360Z,4.46
2022-11-20T12:36:28.674Z,4.51
2022-11-20T12:39:04.736Z,4.46
2022-11-20T12:42:08.685Z,4.51
2022-11-20T12:45:08.895Z,4.51
2022-11-20T12:47:37.971Z,4.52
2022-11-20T12:50:10.317Z,4.51
2022-11-20T12:52:46.357Z,4.51
2022-11-20T12:55:12.696Z,4.50
2022-11-20T12:57:52.998Z,4.46
2022-11-20T13:00:21.413Z,4.54
2022-11-20T13:02:56.593Z,4.70
2022-11-20T13:05:33.258Z,4.84
2022-11-20T13:08:02.968Z,4.83
2022-11-20T13:10:52.499Z,4.77
2022-11-20T13:13:36.381Z,4.68
2022-11-20T13:16:25.935Z,4.62
2022-11-20T13:18:52.480Z,4.65
2022-11-20T13:21:22.443Z,4.66
2022-11-20T13:23:49.238Z,4.71
2022-11-20T13:26:24.581Z,4.73
2022-11-20T13:29:16.921Z,4.67
2022-11-20T13:31:48.879Z,4.65
2022-11-20T13:34:27.642Z,4.67
2022-11-20T13:36:56.818Z,4.67
2022-11-20T13:39:36.922Z,4.59
2022-11-20T13:42:27.486Z,4.59
2022-11-20T13:45:09.210Z,4.55
2022-11-20T13:47:36.649Z,4.51
2022-11-20T13:50:05.177Z,4.51
2022-11-20T13:52:31.582Z,4.45
2022-11-20T13:55:07.075Z,4.37
2022-11-20T13:58:02.461Z,4.38
2022-11-20T14:00:29.084Z,4.36
2022-11-20T14:03:07.738Z,4.29
2022-11-20T14:05:41.545Z,4.29
2022-11-20T14:08:20.615Z,4.27
2022-11-20T14:10:47.055Z,4.26
2022-11-20T14:13:21.134Z,4.26
2022-11-20T14:15:47.700Z,4.21
2022-11-20T14:18:19.973Z,4.16
2022-11-20T14:20:47.307Z,4.11
2022-11-20T14:23:13.677Z,4.03
2022-11-20T14:25:44.057Z,4.02
2022-11-20T14:28:25.533Z,3.99
2022-11-20T14:30:53.078Z,4.00
2022-11-20T14:33:20.824Z,3.97
2022-11-20T14:35:50.584Z,4.04
2022-11-20T14:38:19.485Z,4.01
2022-11-20T14:40:46.229Z,4.06
2022-11-20T14:43:27.581Z,4.02
2022-11-20T14:45:59.604Z,3.98
2022-11-20T14:48:37.993Z,3.96
2022-11-20T14:51:04.363Z,3.97
2022-11-20T14:53:30.705Z,3.97
2022-11-20T14:56:00.418Z,4.07
2022-11-20T14:58:30.143Z,4.02
2022-11-20T15:01:04.415Z,4.05
2022-11-20T15:03:34.751Z,4.13
2022-11-20T15:06:01.647Z,4.09
2022-11-20T15:08:28.406Z,4.15
2022-11-20T15:10:55.926Z,4.10
2022-11-20T15:13:35.237Z,4.00
2022-11-20T15:16:03.719Z,4.04
2022-11-20T15:18:30.159Z,4.05
2022-11-20T15:20:58.621Z,4.03
2022-11-20T15:23:26.700Z,4.01
2022-11-20T15:25:53.063Z,4.15
2022-11-20T15:28:44.852Z,4.04
2022-11-20T15:31:16.663Z,4.00
2022-11-20T15:33:43.467Z,3.92
2022-11-20T15:36:10.671Z,3.86
2022-11-20T15:38:37.573Z,3.72
2022-11-20T15:41:04.056Z,3.63
2022-11-20T15:43:30.494Z,3.51
2022-11-20T15:46:00.932Z,3.49
2022-11-20T15:48:30.827Z,3.44
2022-11-20T15:51:23.403Z,3.30
2022-11-20T15:53:49.767Z,3.32
2022-11-20T15:56:16.219Z,3.27
2022-11-20T15:58:42.623Z,3.22
2022-11-20T16:01:14.280Z,3.20
2022-11-20T16:03:40.996Z,3.15
2022-11-20T16:06:07.331Z,3.10
2022-11-20T16:08:33.726Z,3.06
2022-11-20T16:11:00.202Z,3.05
2022-11-20T16:13:45.483Z,3.08
2022-11-20T16:16:33.312Z,2.98
2022-11-20T16:19:00.908Z,2.96
2022-11-20T16:21:33.646Z,2.98
2022-11-20T16:24:04.703Z,2.99
2022-11-20T16:26:31.905Z,3.02
2022-11-20T16:29:00.331Z,2.98
2022-11-20T16:31:27.337Z,3.02
2022-11-20T16:33:55.052Z,3.02
2022-11-20T16:36:23.044Z,2.99
2022-11-20T16:38:54.387Z,3.03
2022-11-20T16:41:20.613Z,3.06
2022-11-20T16:43:57.902Z,2.98
2022-11-20T16:46:27.128Z,2.92
2022-11-20T16:48:58.709Z,2.88
2022-11-20T16:51:26.184Z,2.98
2022-11-20T16:53:53.459Z,2.83
2022-11-20T16:56:21.586Z,2.77
2022-11-20T16:58:50.071Z,2.80
2022-11-20T17:01:21.729Z,2.71
2022-11-20T17:03:55.243Z,2.60
2022-11-20T17:06:24.923Z,2.52
2022-11-20T17:08:51.873Z,2.41
2022-11-20T17:11:19.640Z,2.35
2022-11-20T17:13:47.308Z,2.37
2022-11-20T17:16:21.731Z,2.36
2022-11-20T17:18:50.057Z,2.40
2022-11-20T17:21:18.482Z,2.44
2022-11-20T17:23:46.406Z,2.44
2022-11-20T17:26:16.403Z,2.41
2022-11-20T17:28:43.422Z,2.44
2022-11-20T17:31:13.908Z,2.41
2022-11-20T17:33:42.474Z,2.31
2022-11-20T17:36:10.723Z,2.32
2022-11-20T17:38:37.127Z,2.29
2022-11-20T17:41:05.306Z,2.21
2022-11-20T17:43:35.700Z,2.16
2022-11-20T17:46:24.418Z,2.19
2022-11-20T17:48:50.759Z,2.15
2022-11-20T17:51:22.442Z,2.08
2022-11-20T17:53:51.383Z,2.06
2022-11-20T17:56:36.709Z,2.13
2022-11-20T17:59:08.329Z,2.07
2022-11-20T18:01:35.147Z,2.02
2022-11-20T18:04:02.474Z,1.97
2022-11-20T18:06:30.417Z,1.91
2022-11-20T18:09:00.653Z,2.00
2022-11-20T18:11:29.479Z,1.99
2022-11-20T18:14:17.414Z,1.98
2022-11-20T18:16:49.030Z,2.03
2022-11-20T18:19:19.282Z,2.05
2022-11-20T18:21:45.794Z,1.95
2022-11-20T18:24:13.734Z,2.00
2022-11-20T18:26:44.272Z,1.93
2022-11-20T18:29:12.930Z,1.91
2022-11-20T18:31:40.103Z,1.85
2022-11-20T18:34:11.338Z,1.86
2022-11-20T18:36:37.772Z,1.90
2022-11-20T18:39:04.718Z,1.89
2022-11-20T18:41:50.503Z,1.94
2022-11-20T18:44:42.131Z,1.95
2022-11-20T18:47:14.698Z,2.00
2022-11-20T18:49:42.900Z,2.10
2022-11-20T18:52:09.342Z,2.15
2022-11-20T18:54:36.970Z,2.26
2022-11-20T18:57:04.688Z,2.26
2022-11-20T18:59:31.702Z,2.26
2022-11-20T19:01:58.440Z,2.27
2022-11-20T19:04:25.264Z,2.26
2022-11-20T19:06:55.941Z,2.19
2022-11-20T19:09:24.169Z,2.14
2022-11-20T19:11:51.214Z,2.06
2022-11-20T19:14:17.882Z,2.19
2022-11-20T19:16:44.320Z,2.19
2022-11-20T19:19:10.880Z,2.15
2022-11-20T19:21:38.326Z,2.12
2022-11-20T19:24:06.117Z,2.04
2022-11-20T19:26:35.606Z,2.09
2022-11-20T19:29:02.810Z,2.07
2022-11-20T19:31:29.231Z,1.97
2022-11-20T19:33:58.298Z,1.92
2022-11-20T19:36:28.793Z,1.89
2022-11-20T19:38:55.525Z,1.89
2022-11-20T19:41:33.650Z,1.90
2022-11-20T19:44:05.367Z,1.86
2022-11-20T19:46:36.933Z,1.81
2022-11-20T19:49:05.437Z,1.85
2022-11-20T19:51:34.632Z,1.89
2022-11-20T19:54:02.249Z,1.92
2022-11-20T19:56:32.798Z,1.95
2022-11-20T19:59:00.285Z,1.97
2022-11-20T20:01:31.691Z,1.98
2022-11-20T20:04:04.965Z,1.97
2022-11-20T20:06:33.116Z,2.11
2022-11-20T20:09:11.881Z,2.08
2022-11-20T20:11:39.593Z,2.06
2022-11-20T20:14:08.570Z,2.10
2022-11-20T20:16:36.085Z,2.08
2022-11-20T20:19:04.527Z,1.97
2022-11-20T20:21:33.166Z,2.01
2022-11-20T20:24:00.015Z,2.01
2022-11-20T20:26:28.534Z,2.06
2022-11-20T20:28:55.596Z,2.07
2022-11-20T20:31:25.546Z,2.07
2022-11-20T20:33:51.981Z,2.05
2022-11-20T20:36:20.005Z,2.08
2022-11-20T20:38:47.081Z,2.11
2022-11-20T20:41:19.556Z,2.07
2022-11-20T20:44:05.139Z,2.09
2022-11-20T20:46:32.636Z,2.02
2022-11-20T20:48:59.096Z,2.03
2022-11-20T20:51:25.552Z,1.94
2022-11-20T20:53:51.941Z,1.92
2022-11-20T20:56:19.355Z,1.96
2022-11-20T20:58:45.925Z,1.89
2022-11-20T21:01:16.938Z,1.86
2022-11-20T21:03:43.601Z,1.89
2022-11-20T21:06:11.112Z,1.85
2022-11-20T21:08:40.745Z,1.85
2022-11-20T21:11:11.131Z,1.85
2022-11-20T21:13:39.745Z,1.88
2022-11-20T21:16:06.933Z,1.90
2022-11-20T21:18:33.546Z,1.88
2022-11-20T21:21:23.112Z,1.86
2022-11-20T21:23:49.715Z,1.88
2022-11-20T21:26:17.274Z,1.92
2022-11-20T21:28:45.913Z,1.94
2022-11-20T21:31:15.204Z,1.94
2022-11-20T21:33:43.758Z,1.92
2022-11-20T21:36:14.026Z,1.96
2022-11-20T21:38:40.826Z,1.93
2022-11-20T21:41:09.977Z,2.08
2022-11-20T21:43:37.073Z,2.13
2022-11-20T21:46:07.110Z,2.22
2022-11-20T21:48:35.283Z,2.29
2022-11-20T21:51:07.093Z,2.38
2022-11-20T21:53:35.159Z,2.41
2022-11-20T21:56:04.100Z,2.37
2022-11-20T21:58:30.844Z,2.46
2022-11-20T22:00:57.833Z,2.52
2022-11-20T22:03:24.631Z,2.58
2022-11-20T22:05:58.610Z,2.55
2022-11-20T22:08:25.999Z,2.64
2022-11-20T22:11:00.578Z,2.64
2022-11-20T22:13:46.521Z,2.71
2022-11-20T22:16:13.843Z,2.72
2022-11-20T22:18:44.961Z,2.75
2022-11-20T22:21:13.854Z,2.72
2022-11-20T22:23:40.676Z,2.80
2022-11-20T22:26:08.309Z,2.89
2022-11-20T22:28:35.559Z,2.83
2022-11-20T22:31:04.404Z,2.84
2022-11-20T22:33:32.269Z,2.86
2022-11-20T22:36:15.593Z,2.84
2022-11-20T22:38:42.730Z,2.82
2022-11-20T22:41:27.150Z,2.77
2022-11-20T22:43:59.449Z,2.83
2022-11-20T22:46:28.216Z,2.79
2022-11-20T22:49:00.026Z,2.76
2022-11-20T22:51:31.354Z,2.77
2022-11-20T22:53:57.684Z,2.79
2022-11-20T22:56:24.189Z,2.73
2022-11-20T22:58:52.235Z,2.71
2022-11-20T23:01:25.700Z,2.71
2022-11-20T23:03:56.032Z,2.71
2022-11-20T23:06:23.434Z,2.65
2022-11-20T23:08:50.346Z,2.68
2022-11-20T23:11:19.659Z,2.68
2022-11-20T23:13:46.586Z,2.66
2022-11-20T23:16:16.101Z,2.64
2022-11-20T23:18:43.572Z,2.61
2022-11-20T23:21:13.277Z,2.61
2022-11-20T23:23:40.223Z,2.56
2022-11-20T23:26:10.118Z,2.55
2022-11-20T23:28:38.175Z,2.59
2022-11-20T23:31:05.109Z,2.59
2022-11-20T23:33:34.720Z,2.58
2022-11-20T23:36:01.126Z,2.59
2022-11-20T23:38:27.602Z,2.60
2022-11-20T23:40:54.009Z,2.57
2022-11-20T23:43:21.813Z,2.57
2022-11-20T23:45:59.366Z,2.65
2022-11-20T23:48:31.129Z,2.64
2022-11-20T23:50:58.370Z,2.67
2022-11-20T23:53:25.461Z,2.68
2022-11-20T23:55:54.175Z,2.65
2022-11-20T23:58:21.870Z,2.66
